sensor_id;sensor_type;location;lat;lon;timestamp;pressure;altitude;pressure_sealevel;temperature;humidity
18533;BME280;9396;51.510;11.934;2024-01-25T00:02:21;101056.25;;;8.17;91.13
18533;BME280;9396;51.510;11.934;2024-01-25T00:04:49;101051.75;;;8.17;91.07
18533;BME280;9396;51.510;11.934;2024-01-25T00:07:15;101048.16;;;8.18;91.08
18533;BME280;9396;51.510;11.934;2024-01-25T00:09:42;101053.69;;;8.15;91.05
18533;BME280;9396;51.510;11.934;2024-01-25T00:12:09;101049.38;;;8.14;91.10
18533;BME280;9396;51.510;11.934;2024-01-25T00:14:35;101046.72;;;8.14;90.77
18533;BME280;9396;51.510;11.934;2024-01-25T00:17:02;101043.94;;;8.16;90.17
18533;BME280;9396;51.510;11.934;2024-01-25T00:19:29;101033.72;;;8.11;91.44
18533;BME280;9396;51.510;11.934;2024-01-25T00:21:57;101041.16;;;8.17;90.33
18533;BME280;9396;51.510;11.934;2024-01-25T00:24:25;101038.75;;;8.14;90.18
18533;BME280;9396;51.510;11.934;2024-01-25T00:26:52;101041.78;;;8.10;91.33
18533;BME280;9396;51.510;11.934;2024-01-25T00:29:19;101040.47;;;8.04;90.84
18533;BME280;9396;51.510;11.934;2024-01-25T00:31:45;101039.38;;;8.07;91.09
18533;BME280;9396;51.510;11.934;2024-01-25T00:34:12;101038.78;;;8.03;91.69
18533;BME280;9396;51.510;11.934;2024-01-25T00:36:39;101039.63;;;8.04;91.07
18533;BME280;9396;51.510;11.934;2024-01-25T00:39:08;101035.91;;;8.06;90.52
18533;BME280;9396;51.510;11.934;2024-01-25T00:41:35;101032.41;;;8.06;90.51
18533;BME280;9396;51.510;11.934;2024-01-25T00:44:02;101037.69;;;8.06;91.01
18533;BME280;9396;51.510;11.934;2024-01-25T00:46:29;101032.53;;;8.04;91.67
18533;BME280;9396;51.510;11.934;2024-01-25T00:48:56;101037.81;;;8.04;91.06
18533;BME280;9396;51.510;11.934;2024-01-25T00:51:24;101025.78;;;8.00;91.53
18533;BME280;9396;51.510;11.934;2024-01-25T00:53:51;101038.56;;;8.06;90.22
18533;BME280;9396;51.510;11.934;2024-01-25T00:56:19;101035.91;;;8.06;90.24
18533;BME280;9396;51.510;11.934;2024-01-25T00:58:46;101022.88;;;8.03;90.46
18533;BME280;9396;51.510;11.934;2024-01-25T01:01:14;101040.22;;;8.07;90.31
18533;BME280;9396;51.510;11.934;2024-01-25T01:03:41;101045.91;;;8.03;90.98
18533;BME280;9396;51.510;11.934;2024-01-25T01:06:08;101046.72;;;8.03;90.68
18533;BME280;9396;51.510;11.934;2024-01-25T01:08:36;101043.72;;;8.08;90.87
18533;BME280;9396;51.510;11.934;2024-01-25T01:11:03;101036.72;;;8.07;91.07
18533;BME280;9396;51.510;11.934;2024-01-25T01:13:31;101041.06;;;8.08;90.70
18533;BME280;9396;51.510;11.934;2024-01-25T01:15:58;101053.94;;;8.01;91.40
18533;BME280;9396;51.510;11.934;2024-01-25T01:18:25;101047.56;;;8.04;90.98
18533;BME280;9396;51.510;11.934;2024-01-25T01:20:51;101059.03;;;8.04;91.08
18533;BME280;9396;51.510;11.934;2024-01-25T01:23:18;101055.38;;;7.94;91.71
18533;BME280;9396;51.510;11.934;2024-01-25T01:25:45;101067.56;;;7.97;92.09
18533;BME280;9396;51.510;11.934;2024-01-25T01:28:11;101074.91;;;7.93;92.14
18533;BME280;9396;51.510;11.934;2024-01-25T01:30:39;101068.75;;;7.93;92.29
18533;BME280;9396;51.510;11.934;2024-01-25T01:33:07;101057.56;;;7.89;92.24
18533;BME280;9396;51.510;11.934;2024-01-25T01:35:34;101062.63;;;7.81;93.26
18533;BME280;9396;51.510;11.934;2024-01-25T01:38:00;101071.91;;;7.87;92.22
18533;BME280;9396;51.510;11.934;2024-01-25T01:40:27;101075.75;;;7.83;92.84
18533;BME280;9396;51.510;11.934;2024-01-25T01:42:58;101072.25;;;7.82;93.56
18533;BME280;9396;51.510;11.934;2024-01-25T01:45:25;101090.06;;;7.80;92.63
18533;BME280;9396;51.510;11.934;2024-01-25T01:47:53;101088.97;;;7.72;93.53
18533;BME280;9396;51.510;11.934;2024-01-25T01:50:20;101077.53;;;7.71;94.24
18533;BME280;9396;51.510;11.934;2024-01-25T01:52:47;101082.38;;;7.77;94.38
18533;BME280;9396;51.510;11.934;2024-01-25T01:55:16;101085.47;;;7.71;94.23
18533;BME280;9396;51.510;11.934;2024-01-25T01:57:43;101088.38;;;7.68;93.63
18533;BME280;9396;51.510;11.934;2024-01-25T02:00:11;101067.19;;;7.68;94.25
18533;BME280;9396;51.510;11.934;2024-01-25T02:02:40;101077.31;;;7.74;94.28
18533;BME280;9396;51.510;11.934;2024-01-25T02:05:09;101069.84;;;7.79;94.16
18533;BME280;9396;51.510;11.934;2024-01-25T02:07:37;101066.72;;;7.63;93.57
18533;BME280;9396;51.510;11.934;2024-01-25T02:10:06;101062.34;;;7.62;93.64
18533;BME280;9396;51.510;11.934;2024-01-25T02:12:33;101055.25;;;7.63;93.59
18533;BME280;9396;51.510;11.934;2024-01-25T02:15:00;101065.00;;;7.62;92.19
18533;BME280;9396;51.510;11.934;2024-01-25T02:17:26;101063.66;;;7.56;91.48
18533;BME280;9396;51.510;11.934;2024-01-25T02:19:53;101065.72;;;7.53;91.26
18533;BME280;9396;51.510;11.934;2024-01-25T02:22:21;101058.50;;;7.55;91.79
18533;BME280;9396;51.510;11.934;2024-01-25T02:24:47;101066.69;;;7.52;91.85
18533;BME280;9396;51.510;11.934;2024-01-25T02:27:14;101076.31;;;7.53;91.20
18533;BME280;9396;51.510;11.934;2024-01-25T02:29:41;101071.72;;;7.55;90.25
18533;BME280;9396;51.510;11.934;2024-01-25T02:32:07;101072.47;;;7.57;90.35
18533;BME280;9396;51.510;11.934;2024-01-25T02:34:34;101071.00;;;7.53;90.61
18533;BME280;9396;51.510;11.934;2024-01-25T02:37:01;101072.59;;;7.55;90.63
18533;BME280;9396;51.510;11.934;2024-01-25T02:39:29;101068.38;;;7.42;91.10
18533;BME280;9396;51.510;11.934;2024-01-25T02:41:56;101072.94;;;7.40;91.01
18533;BME280;9396;51.510;11.934;2024-01-25T02:44:22;101071.34;;;7.37;91.34
18533;BME280;9396;51.510;11.934;2024-01-25T02:46:49;101073.00;;;7.27;92.06
18533;BME280;9396;51.510;11.934;2024-01-25T02:49:16;101064.84;;;7.30;91.65
18533;BME280;9396;51.510;11.934;2024-01-25T02:51:42;101057.72;;;7.20;92.82
18533;BME280;9396;51.510;11.934;2024-01-25T02:54:09;101071.75;;;7.09;92.97
18533;BME280;9396;51.510;11.934;2024-01-25T02:56:37;101068.13;;;7.10;91.99
18533;BME280;9396;51.510;11.934;2024-01-25T02:59:04;101065.13;;;7.04;93.21
18533;BME280;9396;51.510;11.934;2024-01-25T03:01:37;101067.66;;;7.05;93.30
18533;BME280;9396;51.510;11.934;2024-01-25T03:04:04;101073.53;;;7.09;93.25
18533;BME280;9396;51.510;11.934;2024-01-25T03:06:31;101058.28;;;7.01;93.36
18533;BME280;9396;51.510;11.934;2024-01-25T03:08:57;101067.22;;;6.88;94.89
18533;BME280;9396;51.510;11.934;2024-01-25T03:11:24;101058.63;;;6.73;96.23
18533;BME280;9396;51.510;11.934;2024-01-25T03:13:52;101066.16;;;6.67;97.16
18533;BME280;9396;51.510;11.934;2024-01-25T03:16:18;101076.25;;;6.62;97.98
18533;BME280;9396;51.510;11.934;2024-01-25T03:18:45;101072.00;;;6.59;98.51
18533;BME280;9396;51.510;11.934;2024-01-25T03:21:12;101087.03;;;6.59;98.42
18533;BME280;9396;51.510;11.934;2024-01-25T03:23:38;101092.84;;;6.64;97.90
18533;BME280;9396;51.510;11.934;2024-01-25T03:26:05;101096.66;;;6.60;98.85
18533;BME280;9396;51.510;11.934;2024-01-25T03:28:33;101100.81;;;6.51;98.75
18533;BME280;9396;51.510;11.934;2024-01-25T03:31:01;101107.53;;;6.55;99.13
18533;BME280;9396;51.510;11.934;2024-01-25T03:33:28;101109.84;;;6.60;98.29
18533;BME280;9396;51.510;11.934;2024-01-25T03:35:57;101111.34;;;6.64;98.03
18533;BME280;9396;51.510;11.934;2024-01-25T03:38:27;101117.34;;;6.66;98.25
18533;BME280;9396;51.510;11.934;2024-01-25T03:40:54;101120.38;;;6.72;97.72
18533;BME280;9396;51.510;11.934;2024-01-25T03:43:21;101123.97;;;6.71;98.00
18533;BME280;9396;51.510;11.934;2024-01-25T03:45:48;101130.19;;;6.83;96.46
18533;BME280;9396;51.510;11.934;2024-01-25T03:48:17;101129.94;;;6.86;96.50
18533;BME280;9396;51.510;11.934;2024-01-25T03:50:43;101131.59;;;6.76;96.75
18533;BME280;9396;51.510;11.934;2024-01-25T03:53:10;101146.03;;;6.83;97.05
18533;BME280;9396;51.510;11.934;2024-01-25T03:55:37;101145.69;;;6.87;96.17
18533;BME280;9396;51.510;11.934;2024-01-25T03:58:04;101148.03;;;6.92;95.52
18533;BME280;9396;51.510;11.934;2024-01-25T04:00:30;101132.88;;;6.94;95.47
18533;BME280;9396;51.510;11.934;2024-01-25T04:02:57;101139.84;;;6.95;95.82
18533;BME280;9396;51.510;11.934;2024-01-25T04:05:25;101139.34;;;6.90;96.22
18533;BME280;9396;51.510;11.934;2024-01-25T04:07:52;101142.19;;;6.99;95.55
18533;BME280;9396;51.510;11.934;2024-01-25T04:10:19;101142.56;;;7.06;94.84
18533;BME280;9396;51.510;11.934;2024-01-25T04:12:45;101122.47;;;7.03;95.38
18533;BME280;9396;51.510;11.934;2024-01-25T04:15:12;101130.38;;;7.03;93.89
18533;BME280;9396;51.510;11.934;2024-01-25T04:17:39;101140.66;;;7.08;94.01
18533;BME280;9396;51.510;11.934;2024-01-25T04:20:06;101142.19;;;7.10;94.53
18533;BME280;9396;51.510;11.934;2024-01-25T04:22:35;101151.22;;;7.08;93.51
18533;BME280;9396;51.510;11.934;2024-01-25T04:25:02;101163.84;;;7.04;93.83
18533;BME280;9396;51.510;11.934;2024-01-25T04:27:30;101159.78;;;7.11;93.90
18533;BME280;9396;51.510;11.934;2024-01-25T04:29:56;101165.06;;;7.11;93.46
18533;BME280;9396;51.510;11.934;2024-01-25T04:32:23;101151.72;;;7.13;92.41
18533;BME280;9396;51.510;11.934;2024-01-25T04:34:50;101160.84;;;7.09;91.98
18533;BME280;9396;51.510;11.934;2024-01-25T04:37:16;101175.03;;;7.08;93.80
18533;BME280;9396;51.510;11.934;2024-01-25T04:39:44;101156.53;;;7.08;93.71
18533;BME280;9396;51.510;11.934;2024-01-25T04:42:11;101176.72;;;7.09;93.26
18533;BME280;9396;51.510;11.934;2024-01-25T04:44:37;101177.44;;;7.11;91.80
18533;BME280;9396;51.510;11.934;2024-01-25T04:47:04;101175.28;;;7.05;92.70
18533;BME280;9396;51.510;11.934;2024-01-25T04:49:31;101179.81;;;7.03;91.93
18533;BME280;9396;51.510;11.934;2024-01-25T04:51:57;101173.06;;;6.99;90.72
18533;BME280;9396;51.510;11.934;2024-01-25T04:54:24;101176.31;;;7.02;90.84
18533;BME280;9396;51.510;11.934;2024-01-25T04:56:52;101189.00;;;7.10;89.27
18533;BME280;9396;51.510;11.934;2024-01-25T04:59:19;101188.75;;;7.13;89.08
18533;BME280;9396;51.510;11.934;2024-01-25T05:01:45;101185.75;;;7.17;87.29
18533;BME280;9396;51.510;11.934;2024-01-25T05:04:12;101187.16;;;7.34;86.08
18533;BME280;9396;51.510;11.934;2024-01-25T05:06:38;101196.22;;;7.42;85.92
18533;BME280;9396;51.510;11.934;2024-01-25T05:09:05;101194.19;;;7.46;85.49
18533;BME280;9396;51.510;11.934;2024-01-25T05:11:33;101202.50;;;7.41;86.15
18533;BME280;9396;51.510;11.934;2024-01-25T05:14:01;101201.44;;;7.44;85.40
18533;BME280;9396;51.510;11.934;2024-01-25T05:16:28;101199.59;;;7.44;85.39
18533;BME280;9396;51.510;11.934;2024-01-25T05:18:55;101194.31;;;7.44;85.24
18533;BME280;9396;51.510;11.934;2024-01-25T05:21:21;101194.81;;;7.49;83.91
18533;BME280;9396;51.510;11.934;2024-01-25T05:23:48;101202.97;;;7.46;85.32
18533;BME280;9396;51.510;11.934;2024-01-25T05:26:15;101190.38;;;7.50;84.62
18533;BME280;9396;51.510;11.934;2024-01-25T05:28:42;101201.06;;;7.48;84.56
18533;BME280;9396;51.510;11.934;2024-01-25T05:31:10;101190.97;;;7.53;83.76
18533;BME280;9396;51.510;11.934;2024-01-25T05:33:38;101203.66;;;7.61;82.94
18533;BME280;9396;51.510;11.934;2024-01-25T05:36:05;101213.50;;;7.59;83.57
18533;BME280;9396;51.510;11.934;2024-01-25T05:38:32;101227.59;;;7.59;83.66
18533;BME280;9396;51.510;11.934;2024-01-25T05:40:59;101235.03;;;7.54;84.77
18533;BME280;9396;51.510;11.934;2024-01-25T05:43:26;101231.53;;;7.54;84.89
18533;BME280;9396;51.510;11.934;2024-01-25T05:45:52;101243.31;;;7.50;85.06
18533;BME280;9396;51.510;11.934;2024-01-25T05:48:20;101243.06;;;7.53;84.47
18533;BME280;9396;51.510;11.934;2024-01-25T05:50:47;101239.81;;;7.49;84.41
18533;BME280;9396;51.510;11.934;2024-01-25T05:53:14;101242.44;;;7.49;84.88
18533;BME280;9396;51.510;11.934;2024-01-25T05:55:41;101256.09;;;7.56;85.75
18533;BME280;9396;51.510;11.934;2024-01-25T05:58:08;101261.59;;;7.53;85.61
18533;BME280;9396;51.510;11.934;2024-01-25T06:00:35;101265.44;;;7.49;86.94
18533;BME280;9396;51.510;11.934;2024-01-25T06:03:01;101276.78;;;7.51;86.32
18533;BME280;9396;51.510;11.934;2024-01-25T06:05:29;101272.19;;;7.53;87.29
18533;BME280;9396;51.510;11.934;2024-01-25T06:07:56;101274.94;;;7.51;87.81
18533;BME280;9396;51.510;11.934;2024-01-25T06:10:23;101285.53;;;7.51;87.65
18533;BME280;9396;51.510;11.934;2024-01-25T06:12:49;101282.28;;;7.48;87.92
18533;BME280;9396;51.510;11.934;2024-01-25T06:15:16;101290.00;;;7.51;88.60
18533;BME280;9396;51.510;11.934;2024-01-25T06:17:42;101300.59;;;7.51;88.45
18533;BME280;9396;51.510;11.934;2024-01-25T06:20:10;101302.03;;;7.55;87.86
18533;BME280;9396;51.510;11.934;2024-01-25T06:22:38;101292.97;;;7.46;89.33
18533;BME280;9396;51.510;11.934;2024-01-25T06:25:06;101299.97;;;7.47;89.51
18533;BME280;9396;51.510;11.934;2024-01-25T06:27:34;101321.25;;;7.46;88.76
18533;BME280;9396;51.510;11.934;2024-01-25T06:30:01;101325.81;;;7.44;89.15
18533;BME280;9396;51.510;11.934;2024-01-25T06:32:27;101334.59;;;7.44;89.95
18533;BME280;9396;51.510;11.934;2024-01-25T06:34:54;101337.25;;;7.44;90.61
18533;BME280;9396;51.510;11.934;2024-01-25T06:37:20;101338.53;;;7.39;90.17
18533;BME280;9396;51.510;11.934;2024-01-25T06:39:48;101346.34;;;7.40;91.25
18533;BME280;9396;51.510;11.934;2024-01-25T06:42:15;101353.47;;;7.40;90.95
18533;BME280;9396;51.510;11.934;2024-01-25T06:44:42;101353.47;;;7.40;90.72
18533;BME280;9396;51.510;11.934;2024-01-25T06:47:09;101359.91;;;7.36;91.21
18533;BME280;9396;51.510;11.934;2024-01-25T06:49:35;101364.38;;;7.35;91.54
18533;BME280;9396;51.510;11.934;2024-01-25T06:52:02;101365.00;;;7.39;92.37
18533;BME280;9396;51.510;11.934;2024-01-25T06:54:29;101366.38;;;7.32;92.36
18533;BME280;9396;51.510;11.934;2024-01-25T06:56:57;101370.75;;;7.33;92.15
18533;BME280;9396;51.510;11.934;2024-01-25T06:59:24;101372.19;;;7.37;92.23
18533;BME280;9396;51.510;11.934;2024-01-25T07:01:51;101379.19;;;7.38;92.79
18533;BME280;9396;51.510;11.934;2024-01-25T07:04:17;101396.22;;;7.34;92.82
18533;BME280;9396;51.510;11.934;2024-01-25T07:06:44;101393.94;;;7.29;92.08
18533;BME280;9396;51.510;11.934;2024-01-25T07:09:10;101401.13;;;7.27;91.61
18533;BME280;9396;51.510;11.934;2024-01-25T07:11:37;101401.13;;;7.27;92.62
18533;BME280;9396;51.510;11.934;2024-01-25T07:14:06;101397.63;;;7.27;92.25
18533;BME280;9396;51.510;11.934;2024-01-25T07:16:33;101400.16;;;7.28;92.44
18533;BME280;9396;51.510;11.934;2024-01-25T07:18:59;101399.53;;;7.25;92.78
18533;BME280;9396;51.510;11.934;2024-01-25T07:21:26;101403.88;;;7.26;92.70
18533;BME280;9396;51.510;11.934;2024-01-25T07:23:52;101406.53;;;7.26;92.47
18533;BME280;9396;51.510;11.934;2024-01-25T07:26:19;101417.13;;;7.26;92.39
18533;BME280;9396;51.510;11.934;2024-01-25T07:28:47;101418.69;;;7.28;92.99
18533;BME280;9396;51.510;11.934;2024-01-25T07:31:15;101419.19;;;7.33;92.28
18533;BME280;9396;51.510;11.934;2024-01-25T07:33:42;101421.31;;;7.28;93.02
18533;BME280;9396;51.510;11.934;2024-01-25T07:36:08;101425.56;;;7.31;93.38
18533;BME280;9396;51.510;11.934;2024-01-25T07:38:35;101415.41;;;7.25;93.80
18533;BME280;9396;51.510;11.934;2024-01-25T07:41:02;101422.09;;;7.18;92.73
18533;BME280;9396;51.510;11.934;2024-01-25T07:43:29;101421.78;;;7.22;93.22
18533;BME280;9396;51.510;11.934;2024-01-25T07:45:55;101421.78;;;7.22;93.21
18533;BME280;9396;51.510;11.934;2024-01-25T07:48:23;101439.22;;;7.25;92.68
18533;BME280;9396;51.510;11.934;2024-01-25T07:50:50;101435.22;;;7.68;96.18
18533;BME280;9396;51.510;11.934;2024-01-25T07:53:16;101438.75;;;7.92;94.77
18533;BME280;9396;51.510;11.934;2024-01-25T07:55:43;101435.06;;;8.18;94.11
18533;BME280;9396;51.510;11.934;2024-01-25T07:58:10;101420.81;;;8.32;92.29
18533;BME280;9396;51.510;11.934;2024-01-25T08:00:37;101421.38;;;8.24;90.54
18533;BME280;9396;51.510;11.934;2024-01-25T08:03:04;101427.00;;;8.20;91.45
18533;BME280;9396;51.510;11.934;2024-01-25T08:05:32;101437.47;;;8.21;93.25
18533;BME280;9396;51.510;11.934;2024-01-25T08:07:59;101440.22;;;8.32;94.12
18533;BME280;9396;51.510;11.934;2024-01-25T08:10:25;101451.19;;;8.39;92.71
18533;BME280;9396;51.510;11.934;2024-01-25T08:12:52;101447.00;;;8.36;92.13
18533;BME280;9396;51.510;11.934;2024-01-25T08:15:20;101461.31;;;8.21;91.31
18533;BME280;9396;51.510;11.934;2024-01-25T08:17:47;101454.66;;;8.16;91.10
18533;BME280;9396;51.510;11.934;2024-01-25T08:20:13;101452.38;;;8.11;91.06
18533;BME280;9396;51.510;11.934;2024-01-25T08:22:41;101452.00;;;8.16;91.62
18533;BME280;9396;51.510;11.934;2024-01-25T08:25:08;101450.72;;;8.21;92.27
18533;BME280;9396;51.510;11.934;2024-01-25T08:27:35;101459.94;;;8.28;92.30
18533;BME280;9396;51.510;11.934;2024-01-25T08:30:03;101462.84;;;8.13;90.97
18533;BME280;9396;51.510;11.934;2024-01-25T08:32:29;101453.94;;;8.14;91.34
18533;BME280;9396;51.510;11.934;2024-01-25T08:34:56;101459.94;;;8.28;91.47
18533;BME280;9396;51.510;11.934;2024-01-25T08:37:23;101447.94;;;8.35;93.68
18533;BME280;9396;51.510;11.934;2024-01-25T08:39:51;101453.97;;;8.37;93.68
18533;BME280;9396;51.510;11.934;2024-01-25T08:42:18;101438.16;;;8.59;92.68
18533;BME280;9396;51.510;11.934;2024-01-25T08:44:46;101444.06;;;8.63;91.58
18533;BME280;9396;51.510;11.934;2024-01-25T08:47:14;101441.06;;;8.68;91.86
18533;BME280;9396;51.510;11.934;2024-01-25T08:49:41;101450.06;;;8.54;89.75
18533;BME280;9396;51.510;11.934;2024-01-25T08:52:08;101440.28;;;8.54;91.85
18533;BME280;9396;51.510;11.934;2024-01-25T08:54:35;101445.28;;;8.35;90.41
18533;BME280;9396;51.510;11.934;2024-01-25T08:57:04;101454.31;;;8.33;91.53
18533;BME280;9396;51.510;11.934;2024-01-25T08:59:32;101461.97;;;8.25;90.84
18533;BME280;9396;51.510;11.934;2024-01-25T09:02:00;101451.06;;;8.40;93.42
18533;BME280;9396;51.510;11.934;2024-01-25T09:04:27;101449.84;;;8.33;91.21
18533;BME280;9396;51.510;11.934;2024-01-25T09:06:53;101452.16;;;8.38;91.33
18533;BME280;9396;51.510;11.934;2024-01-25T09:09:20;101464.81;;;8.34;90.63
18533;BME280;9396;51.510;11.934;2024-01-25T09:11:47;101463.81;;;8.59;92.76
18533;BME280;9396;51.510;11.934;2024-01-25T09:14:15;101467.09;;;8.62;91.20
18533;BME280;9396;51.510;11.934;2024-01-25T09:16:41;101475.22;;;8.48;89.62
18533;BME280;9396;51.510;11.934;2024-01-25T09:19:08;101466.31;;;8.49;89.64
18533;BME280;9396;51.510;11.934;2024-01-25T09:21:38;101464.88;;;8.45;88.82
18533;BME280;9396;51.510;11.934;2024-01-25T09:24:05;101478.31;;;8.42;90.08
18533;BME280;9396;51.510;11.934;2024-01-25T09:26:32;101479.78;;;8.46;90.79
18533;BME280;9396;51.510;11.934;2024-01-25T09:28:59;101487.75;;;8.46;89.87
18533;BME280;9396;51.510;11.934;2024-01-25T09:31:27;101487.41;;;8.51;91.60
18533;BME280;9396;51.510;11.934;2024-01-25T09:33:54;101488.38;;;8.50;90.67
18533;BME280;9396;51.510;11.934;2024-01-25T09:36:20;101492.06;;;8.36;89.84
18533;BME280;9396;51.510;11.934;2024-01-25T09:38:47;101495.66;;;8.23;90.32
18533;BME280;9396;51.510;11.934;2024-01-25T09:41:14;101501.06;;;8.21;91.20
18533;BME280;9396;51.510;11.934;2024-01-25T09:43:40;101504.69;;;8.33;92.55
18533;BME280;9396;51.510;11.934;2024-01-25T09:46:12;101509.34;;;8.53;93.57
18533;BME280;9396;51.510;11.934;2024-01-25T09:48:41;101519.31;;;8.49;91.61
18533;BME280;9396;51.510;11.934;2024-01-25T09:51:09;101525.66;;;8.59;94.54
18533;BME280;9396;51.510;11.934;2024-01-25T09:53:39;101526.03;;;8.42;91.46
18533;BME280;9396;51.510;11.934;2024-01-25T09:56:07;101533.38;;;8.39;91.61
18533;BME280;9396;51.510;11.934;2024-01-25T09:58:38;101533.41;;;8.26;91.32
18533;BME280;9396;51.510;11.934;2024-01-25T10:01:08;101534.91;;;8.30;91.61
18533;BME280;9396;51.510;11.934;2024-01-25T10:03:36;101541.88;;;8.31;92.16
18533;BME280;9396;51.510;11.934;2024-01-25T10:06:07;101537.91;;;8.26;91.75
18533;BME280;9396;51.510;11.934;2024-01-25T10:08:34;101533.66;;;8.11;91.32
18533;BME280;9396;51.510;11.934;2024-01-25T10:11:00;101541.31;;;8.03;91.57
18533;BME280;9396;51.510;11.934;2024-01-25T10:13:28;101536.88;;;7.91;92.04
18533;BME280;9396;51.510;11.934;2024-01-25T10:15:55;101533.91;;;7.95;92.45
18533;BME280;9396;51.510;11.934;2024-01-25T10:18:22;101539.22;;;7.95;92.49
18533;BME280;9396;51.510;11.934;2024-01-25T10:20:49;101539.75;;;7.88;93.37
18533;BME280;9396;51.510;11.934;2024-01-25T10:23:17;101546.66;;;7.90;93.66
18533;BME280;9396;51.510;11.934;2024-01-25T10:25:44;101538.59;;;7.92;93.67
18533;BME280;9396;51.510;11.934;2024-01-25T10:28:12;101541.00;;;7.95;93.37
18533;BME280;9396;51.510;11.934;2024-01-25T10:30:38;101540.38;;;7.91;93.90
18533;BME280;9396;51.510;11.934;2024-01-25T10:33:06;101543.44;;;7.98;94.09
18533;BME280;9396;51.510;11.934;2024-01-25T10:35:32;101545.97;;;7.99;93.26
18533;BME280;9396;51.510;11.934;2024-01-25T10:37:59;101556.38;;;8.02;92.37
18533;BME280;9396;51.510;11.934;2024-01-25T10:40:28;101563.81;;;7.97;92.36
18533;BME280;9396;51.510;11.934;2024-01-25T10:42:55;101566.34;;;7.99;92.50
18533;BME280;9396;51.510;11.934;2024-01-25T10:45:22;101565.91;;;7.92;93.74
18533;BME280;9396;51.510;11.934;2024-01-25T10:47:48;101563.56;;;8.00;91.96
18533;BME280;9396;51.510;11.934;2024-01-25T10:50:15;101562.59;;;8.01;91.98
18533;BME280;9396;51.510;11.934;2024-01-25T10:52:43;101557.28;;;8.14;90.96
18533;BME280;9396;51.510;11.934;2024-01-25T10:55:11;101556.97;;;8.18;91.22
18533;BME280;9396;51.510;11.934;2024-01-25T10:57:43;101560.78;;;8.14;90.36
18533;BME280;9396;51.510;11.934;2024-01-25T11:00:12;101547.88;;;8.10;90.09
18533;BME280;9396;51.510;11.934;2024-01-25T11:02:40;101543.50;;;8.09;91.17
18533;BME280;9396;51.510;11.934;2024-01-25T11:05:09;101548.69;;;8.10;91.72
18533;BME280;9396;51.510;11.934;2024-01-25T11:07:44;101542.50;;;8.22;90.75
18533;BME280;9396;51.510;11.934;2024-01-25T11:10:16;101532.13;;;8.19;90.70
18533;BME280;9396;51.510;11.934;2024-01-25T11:12:55;101533.13;;;8.18;90.90
18533;BME280;9396;51.510;11.934;2024-01-25T11:15:22;101531.97;;;8.10;91.05
18533;BME280;9396;51.510;11.934;2024-01-25T11:17:53;101530.56;;;8.17;91.28
18533;BME280;9396;51.510;11.934;2024-01-25T11:20:21;101524.94;;;8.21;90.94
18533;BME280;9396;51.510;11.934;2024-01-25T11:22:48;101521.66;;;8.18;91.21
18533;BME280;9396;51.510;11.934;2024-01-25T11:25:19;101521.78;;;8.16;90.11
18533;BME280;9396;51.510;11.934;2024-01-25T11:27:48;101514.13;;;8.12;90.44
18533;BME280;9396;51.510;11.934;2024-01-25T11:30:17;101513.09;;;8.14;90.29
18533;BME280;9396;51.510;11.934;2024-01-25T11:32:44;101514.06;;;8.13;89.36
18533;BME280;9396;51.510;11.934;2024-01-25T11:35:12;101516.78;;;8.12;89.67
18533;BME280;9396;51.510;11.934;2024-01-25T11:37:42;101511.06;;;8.18;89.73
18533;BME280;9396;51.510;11.934;2024-01-25T11:40:10;101512.66;;;8.20;90.35
18533;BME280;9396;51.510;11.934;2024-01-25T11:42:36;101500.97;;;8.23;89.43
18533;BME280;9396;51.510;11.934;2024-01-25T11:45:04;101507.78;;;8.27;88.84
18533;BME280;9396;51.510;11.934;2024-01-25T11:47:32;101507.41;;;8.31;89.23
18533;BME280;9396;51.510;11.934;2024-01-25T11:49:59;101500.94;;;8.35;88.84
18533;BME280;9396;51.510;11.934;2024-01-25T11:52:27;101495.13;;;8.30;88.76
18533;BME280;9396;51.510;11.934;2024-01-25T11:54:57;101517.34;;;8.40;87.75
18533;BME280;9396;51.510;11.934;2024-01-25T11:57:23;101522.34;;;8.45;88.08
18533;BME280;9396;51.510;11.934;2024-01-25T11:59:50;101513.28;;;8.47;88.32
18533;BME280;9396;51.510;11.934;2024-01-25T12:02:17;101517.09;;;8.56;88.83
18533;BME280;9396;51.510;11.934;2024-01-25T12:04:47;101530.84;;;8.61;88.50
18533;BME280;9396;51.510;11.934;2024-01-25T12:07:14;101524.69;;;8.60;87.90
18533;BME280;9396;51.510;11.934;2024-01-25T12:09:41;101535.69;;;8.67;88.39
18533;BME280;9396;51.510;11.934;2024-01-25T12:12:09;101535.84;;;8.53;88.50
18533;BME280;9396;51.510;11.934;2024-01-25T12:14:35;101529.63;;;8.54;88.11
18533;BME280;9396;51.510;11.934;2024-01-25T12:17:03;101524.63;;;8.49;87.97
18533;BME280;9396;51.510;11.934;2024-01-25T12:19:30;101524.88;;;8.46;87.63
18533;BME280;9396;51.510;11.934;2024-01-25T12:21:58;101520.00;;;8.40;87.75
18533;BME280;9396;51.510;11.934;2024-01-25T12:24:24;101525.66;;;8.36;88.08
18533;BME280;9396;51.510;11.934;2024-01-25T12:26:51;101517.09;;;8.32;88.14
18533;BME280;9396;51.510;11.934;2024-01-25T12:29:18;101521.91;;;8.38;88.89
18533;BME280;9396;51.510;11.934;2024-01-25T12:31:44;101519.19;;;8.40;88.96
18533;BME280;9396;51.510;11.934;2024-01-25T12:34:13;101519.25;;;8.38;88.05
18533;BME280;9396;51.510;11.934;2024-01-25T12:36:39;101518.31;;;8.39;88.36
18533;BME280;9396;51.510;11.934;2024-01-25T12:39:07;101515.44;;;8.42;88.18
18533;BME280;9396;51.510;11.934;2024-01-25T12:41:35;101519.88;;;8.42;88.71
18533;BME280;9396;51.510;11.934;2024-01-25T12:44:02;101526.53;;;8.47;88.35
18533;BME280;9396;51.510;11.934;2024-01-25T12:46:29;101528.53;;;8.56;87.63
18533;BME280;9396;51.510;11.934;2024-01-25T12:48:56;101521.31;;;8.58;87.28
18533;BME280;9396;51.510;11.934;2024-01-25T12:51:24;101522.78;;;8.62;88.05
18533;BME280;9396;51.510;11.934;2024-01-25T12:53:50;101527.97;;;8.64;88.31
18533;BME280;9396;51.510;11.934;2024-01-25T12:56:18;101521.59;;;8.67;88.18
18533;BME280;9396;51.510;11.934;2024-01-25T12:58:45;101520.38;;;8.71;88.66
18533;BME280;9396;51.510;11.934;2024-01-25T13:01:12;101529.44;;;8.68;88.70